Time;durP1;ratioP1;P1;durP2;ratioP2;P2;SDS_P1;SDS_P2;PMS_P1;PMS_P2;Temp;Humidity;BMP_temperature;BMP_pressure;BME280_temperature;BME280_humidity;BME280_pressure;Samples;Min_cycle;Max_cycle;Signal;HPM_P1;HPM_P2
2022/11/30 07:39:56;;;;;;;24.17;12.48;;;;;;;4.32;100.00;99392.09;5109784;27;20387;-78
2022/11/30 07:42:23;;;;;;;27.48;13.02;;;;;;;4.49;100.00;99405.84;5108549;28;20690;-78
2022/11/30 07:44:49;;;;;;;30.30;11.65;;;;;;;4.58;100.00;99394.22;5101790;28;20216;-78
2022/11/30 07:47:16;;;;;;;28.88;12.82;;;;;;;4.66;100.00;99398.91;5105041;28;20040;-78
2022/11/30 07:49:42;;;;;;;28.77;13.77;;;;;;;4.83;100.00;99405.41;5102859;28;20568;-78
2022/11/30 07:52:09;;;;;;;30.13;14.20;;;;;;;4.87;100.00;99399.59;5106477;28;20047;-78
2022/11/30 07:54:35;;;;;;;29.60;13.70;;;;;;;4.82;100.00;99385.72;5107905;28;20405;-78
2022/11/30 07:57:03;;;;;;;26.90;12.93;;;;;;;4.85;100.00;99393.53;5107711;28;20490;-78
2022/11/30 07:59:30;;;;;;;26.15;11.32;;;;;;;4.92;100.00;99399.16;5104615;28;20047;-79
2022/11/30 08:01:56;;;;;;;26.98;11.85;;;;;;;4.99;100.00;99388.69;5100150;28;20054;-78
2022/11/30 08:04:23;;;;;;;25.80;12.43;;;;;;;5.06;100.00;99396.06;5107012;28;20040;-78
2022/11/30 08:06:50;;;;;;;20.88;11.90;;;;;;;5.21;100.00;99407.25;5107557;28;20055;-78
2022/11/30 08:09:16;;;;;;;24.40;12.45;;;;;;;5.26;100.00;99396.84;5107488;28;20071;-78
2022/11/30 08:11:43;;;;;;;27.27;11.95;;;;;;;5.34;100.00;99396.13;5107684;28;20058;-78
2022/11/30 08:14:13;;;;;;;28.50;13.13;;;;;;;5.43;100.00;99426.75;5106206;28;20052;-78
2022/11/30 08:16:39;;;;;;;26.20;11.77;;;;;;;5.38;100.00;99415.59;5098208;28;20047;-78
2022/11/30 08:19:06;;;;;;;21.58;12.43;;;;;;;5.48;100.00;99416.41;5104940;28;20048;-78
2022/11/30 08:21:32;;;;;;;33.00;13.50;;;;;;;5.54;100.00;99423.91;5097285;28;20043;-78
2022/11/30 08:23:59;;;;;;;26.88;12.68;;;;;;;5.52;100.00;99422.34;5103025;28;20486;-78
2022/11/30 08:26:28;;;;;;;27.63;12.52;;;;;;;5.39;100.00;99414.56;5107274;28;20082;-78
2022/11/30 08:28:55;;;;;;;28.02;13.27;;;;;;;5.41;100.00;99409.91;5105128;28;20498;-78
2022/11/30 08:31:24;;;;;;;28.58;13.68;;;;;;;5.56;100.00;99430.00;5106750;28;20044;-78
2022/11/30 08:33:55;;;;;;;28.48;12.50;;;;;;;5.72;100.00;99437.50;5105346;28;20050;-78
2022/11/30 08:36:23;;;;;;;26.88;13.30;;;;;;;5.59;100.00;99418.91;5106152;28;20047;-78
2022/11/30 08:38:50;;;;;;;27.67;13.75;;;;;;;5.78;100.00;99414.44;5103369;28;20054;-78
2022/11/30 08:41:18;;;;;;;31.88;14.68;;;;;;;5.97;100.00;99443.25;5106850;28;20052;-79
2022/11/30 08:43:45;;;;;;;27.23;13.50;;;;;;;5.90;100.00;99423.19;5106392;28;20047;-78
2022/11/30 08:46:13;;;;;;;29.23;13.98;;;;;;;5.88;100.00;99430.59;5105278;28;20515;-78
2022/11/30 08:48:41;;;;;;;26.30;14.68;;;;;;;6.08;100.00;99434.09;5107150;28;20048;-78
2022/11/30 08:51:12;;;;;;;30.88;13.98;;;;;;;6.29;100.00;99440.13;5090008;28;20048;-79
2022/11/30 08:53:39;;;;;;;27.58;13.57;;;;;;;6.25;100.00;99425.22;5082818;28;20247;-78
2022/11/30 08:56:09;;;;;;;33.85;15.07;;;;;;;6.36;100.00;99440.34;5091506;28;20047;-78
2022/11/30 08:58:37;;;;;;;31.67;14.63;;;;;;;6.42;100.00;99444.31;5092616;28;20050;-79
2022/11/30 09:01:08;;;;;;;24.70;13.80;;;;;;;6.28;100.00;99442.94;5091768;28;20059;-78
2022/11/30 09:03:35;;;;;;;28.38;14.43;;;;;;;6.41;100.00;99448.00;5092151;28;20049;-78
2022/11/30 09:06:08;;;;;;;27.67;14.63;;;;;;;6.18;100.00;99449.22;5092630;28;20052;-78
2022/11/30 09:08:35;;;;;;;31.38;13.55;;;;;;;6.25;100.00;99468.41;5089116;28;20040;-78
2022/11/30 09:11:08;;;;;;;29.58;14.30;;;;;;;6.29;100.00;99471.66;5092626;28;20074;-78
2022/11/30 09:13:35;;;;;;;28.40;13.63;;;;;;;6.31;100.00;99462.41;5091835;28;20055;-78
2022/11/30 09:16:02;;;;;;;28.80;13.55;;;;;;;6.26;100.00;99455.75;5090738;28;20051;-78
2022/11/30 09:18:28;;;;;;;28.02;13.60;;;;;;;6.26;100.00;99455.75;5089523;28;20051;-78
2022/11/30 09:20:59;;;;;;;29.33;13.90;;;;;;;6.16;100.00;99462.03;5092679;28;20150;-78
2022/11/30 09:23:28;;;;;;;30.17;13.98;;;;;;;6.12;100.00;99446.31;5090124;28;20047;-78
2022/11/30 09:25:56;;;;;;;26.30;13.15;;;;;;;6.27;100.00;99466.41;5092027;28;20048;-78
2022/11/30 09:28:23;;;;;;;31.20;13.68;;;;;;;6.29;100.00;99474.34;5092299;28;20044;-78
2022/11/30 09:30:49;;;;;;;30.38;14.57;;;;;;;6.22;100.00;99462.44;5092119;28;20204;-78
2022/11/30 09:33:16;;;;;;;29.35;13.57;;;;;;;6.11;100.00;99437.38;5088789;28;20499;-78
2022/11/30 09:35:42;;;;;;;25.42;13.52;;;;;;;6.29;100.00;99464.41;5085830;28;20411;-78
2022/11/30 09:38:09;;;;;;;29.70;13.30;;;;;;;6.33;100.00;99456.84;5089276;28;20048;-78
2022/11/30 09:40:40;;;;;;;30.05;14.57;;;;;;;6.36;100.00;99472.75;5091903;28;20046;-78
2022/11/30 09:43:20;;;;;;;25.75;13.95;;;;;;;6.29;100.00;99459.00;5089795;28;20498;-78
2022/11/30 09:45:53;;;;;;;28.75;13.38;;;;;;;6.53;100.00;99476.47;5091909;28;20055;-78
2022/11/30 09:48:32;;;;;;;26.48;12.48;;;;;;;6.43;100.00;99467.59;5092547;28;20056;-78
2022/11/30 09:51:04;;;;;;;27.45;12.98;;;;;;;6.52;100.00;99478.34;5090417;28;20059;-78
2022/11/30 09:53:38;;;;;;;24.10;12.30;;;;;;;6.47;100.00;99452.78;5091371;28;20051;-78
2022/11/30 09:56:18;;;;;;;25.83;12.00;;;;;;;6.44;100.00;99482.78;5091597;28;20062;-79
2022/11/30 09:58:48;;;;;;;22.20;12.02;;;;;;;6.48;100.00;99465.28;5086216;28;20051;-78
2022/11/30 10:01:17;;;;;;;25.00;13.32;;;;;;;6.44;100.00;99466.59;5090661;28;21277;-79
2022/11/30 10:03:44;;;;;;;24.85;11.90;;;;;;;6.25;100.00;99443.22;5089634;28;20059;-79
2022/11/30 10:06:15;;;;;;;25.48;13.57;;;;;;;6.45;100.00;99476.41;5091200;28;20051;-78
2022/11/30 10:09:00;;;;;;;24.10;12.60;;;;;;;6.45;100.00;99465.59;5091984;28;20048;-78
2022/11/30 10:11:47;;;;;;;24.08;12.00;;;;;;;6.41;100.00;99459.63;5091577;28;20048;-79
2022/11/30 10:15:03;;;;;;;23.45;12.45;;;;;;;6.58;100.00;99467.94;5085694;28;20295;-78
2022/11/30 10:17:39;;;;;;;23.40;11.40;;;;;;;6.66;100.00;99455.34;5009606;28;20643;-79
2022/11/30 10:20:19;;;;;;;24.55;11.65;;;;;;;6.65;100.00;99459.06;5015813;28;20045;-79
2022/11/30 10:23:02;;;;;;;24.20;12.35;;;;;;;6.65;100.00;99450.94;5064879;28;20051;-79
2022/11/30 10:25:37;;;;;;;27.70;13.98;;;;;;;6.80;100.00;99462.09;5091296;28;20048;-79
2022/11/30 10:28:16;;;;;;;23.20;11.85;;;;;;;6.72;100.00;99454.75;5090429;28;20132;-78
2022/11/30 10:30:44;;;;;;;26.55;13.27;;;;;;;6.75;100.00;99450.91;5091362;28;20082;-79
2022/11/30 10:33:15;;;;;;;23.95;12.23;;;;;;;6.80;100.00;99455.84;5084464;28;20072;-78
2022/11/30 10:35:46;;;;;;;31.27;13.02;;;;;;;6.82;100.00;99453.81;5091423;28;20087;-79
2022/11/30 10:38:17;;;;;;;23.13;11.93;;;;;;;6.63;100.00;99444.03;5090620;28;20047;-78
2022/11/30 10:40:48;;;;;;;23.92;12.23;;;;;;;6.62;100.00;99464.75;5091229;28;20043;-78
2022/11/30 10:43:21;;;;;;;23.05;12.30;;;;;;;6.59;100.00;99456.13;5090161;28;20419;-78
2022/11/30 10:45:49;;;;;;;22.48;11.95;;;;;;;6.63;100.00;99460.22;5084383;28;20048;-78
2022/11/30 10:48:24;;;;;;;22.13;12.35;;;;;;;6.54;100.00;99443.06;5083562;28;20554;-78
2022/11/30 10:50:51;;;;;;;20.58;10.85;;;;;;;6.61;100.00;99421.69;5084786;28;20491;-78
2022/11/30 10:53:17;;;;;;;20.67;11.43;;;;;;;6.72;100.00;99452.03;5089827;28;20043;-78
2022/11/30 10:55:52;;;;;;;22.58;11.80;;;;;;;6.83;100.00;99456.38;5090973;28;20054;-78
2022/11/30 10:58:24;;;;;;;23.92;12.18;;;;;;;6.74;100.00;99451.88;5090996;28;20044;-79
2022/11/30 11:01:03;;;;;;;20.52;11.98;;;;;;;6.62;100.00;99432.34;5082087;28;20484;-78
2022/11/30 11:03:30;;;;;;;16.83;9.75;;;;;;;6.62;100.00;99434.22;5083372;28;20391;-78
2022/11/30 11:06:12;;;;;;;18.90;10.90;;;;;;;6.79;100.00;99449.59;5090768;28;20403;-78
2022/11/30 11:08:41;;;;;;;20.70;10.98;;;;;;;6.80;100.00;99443.16;5084389;28;20115;-78
2022/11/30 11:11:26;;;;;;;21.77;10.52;;;;;;;6.76;100.00;99424.72;5090283;28;20055;-79
2022/11/30 11:14:08;;;;;;;21.10;10.57;;;;;;;6.86;100.00;99447.94;5089502;28;20052;-78
2022/11/30 11:16:49;;;;;;;18.02;9.48;;;;;;;6.63;100.00;99427.81;5081515;28;20539;-78
2022/11/30 11:19:24;;;;;;;18.90;9.88;;;;;;;6.82;100.00;99451.13;5090228;28;20048;-78
2022/11/30 11:21:52;;;;;;;17.52;8.75;;;;;;;6.73;100.00;99447.50;5089962;28;20052;-78
2022/11/30 11:24:19;;;;;;;16.48;8.32;;;;;;;6.63;100.00;99466.47;5089184;28;20102;-78
2022/11/30 11:26:50;;;;;;;16.10;8.27;;;;;;;6.70;100.00;99447.81;5090363;28;20052;-78
2022/11/30 11:29:31;;;;;;;14.57;7.75;;;;;;;6.64;100.00;99446.56;5086495;28;20048;-78
2022/11/30 11:32:20;;;;;;;10.63;6.47;;;;;;;6.71;100.00;99439.56;5083442;28;20052;-78
2022/11/30 11:34:47;;;;;;;10.80;6.65;;;;;;;6.86;100.00;99452.53;5090073;28;20056;-79
2022/11/30 11:37:22;;;;;;;12.20;7.07;;;;;;;6.83;100.00;99448.25;5085567;28;20495;-79
2022/11/30 11:39:57;;;;;;;9.68;6.07;;;;;;;6.78;100.00;99438.94;5089751;28;20079;-78
2022/11/30 11:42:25;;;;;;;11.60;6.45;;;;;;;6.85;100.00;99453.50;5089658;28;20051;-78
2022/11/30 11:44:57;;;;;;;9.68;5.95;;;;;;;6.83;100.00;99452.81;5089864;28;20052;-78
2022/11/30 11:47:26;;;;;;;11.23;6.53;;;;;;;6.69;100.00;99449.66;5088757;28;20109;-78
2022/11/30 11:50:05;;;;;;;9.73;5.90;;;;;;;6.74;100.00;99427.56;5088179;28;20139;-78
2022/11/30 11:52:32;;;;;;;8.82;5.80;;;;;;;6.85;100.00;99437.28;5084743;28;20048;-78
2022/11/30 11:55:02;;;;;;;8.35;5.35;;;;;;;6.98;100.00;99436.91;5088385;28;20494;-78
2022/11/30 11:57:38;;;;;;;20.23;7.80;;;;;;;6.87;100.00;99438.00;5090119;28;20052;-78
2022/11/30 12:00:15;;;;;;;8.27;5.35;;;;;;;6.93;100.00;99445.50;5090056;28;20055;-78
2022/11/30 12:02:50;;;;;;;9.45;5.30;;;;;;;6.83;100.00;99432.06;5089592;28;20062;-78
2022/11/30 12:05:23;;;;;;;9.38;5.93;;;;;;;6.99;100.00;99444.03;5088018;28;20139;-78
2022/11/30 12:08:00;;;;;;;13.25;6.05;;;;;;;6.91;100.00;99429.44;5088450;28;20052;-78
2022/11/30 12:10:31;;;;;;;15.10;6.50;;;;;;;7.02;100.00;99443.72;5082453;28;20040;-78
2022/11/30 12:12:59;;;;;;;11.88;6.03;;;;;;;6.93;100.00;99436.56;5088911;28;20078;-78
2022/11/30 12:15:35;;;;;;;12.52;6.78;;;;;;;6.99;100.00;99447.59;5089957;28;20075;-78
2022/11/30 12:18:12;;;;;;;11.15;6.85;;;;;;;6.99;100.00;99428.66;5089834;28;20052;-78
2022/11/30 12:20:52;;;;;;;11.50;6.75;;;;;;;6.94;100.00;99436.41;5087262;28;20040;-78
2022/11/30 12:23:42;;;;;;;11.90;6.82;;;;;;;6.87;100.00;99421.78;5079505;28;20048;-78
2022/11/30 12:26:15;;;;;;;14.45;6.90;;;;;;;6.91;100.00;99421.31;5092365;28;20056;-78
2022/11/30 12:28:50;;;;;;;14.90;7.85;;;;;;;6.81;100.00;99438.63;5085399;28;20059;-78
2022/11/30 12:31:18;;;;;;;13.48;7.28;;;;;;;6.82;100.00;99443.00;5088128;28;20044;-78
2022/11/30 12:34:01;;;;;;;13.23;7.50;;;;;;;6.72;100.00;99425.03;5092807;28;20055;-78
2022/11/30 12:36:37;;;;;;;13.73;7.88;;;;;;;6.79;100.00;99427.97;5093477;28;20223;-78
2022/11/30 12:39:09;;;;;;;13.02;7.43;;;;;;;6.85;100.00;99438.16;5092997;28;20495;-78
2022/11/30 12:41:47;;;;;;;11.65;7.15;;;;;;;6.78;100.00;99420.03;5093360;28;20048;-78
2022/11/30 12:44:39;;;;;;;12.98;7.32;;;;;;;6.80;100.00;99432.34;5091157;28;20044;-78
2022/11/30 12:47:19;;;;;;;14.32;7.00;;;;;;;6.69;100.00;99417.22;5090060;28;20052;-78
2022/11/30 12:50:04;;;;;;;14.73;8.10;;;;;;;6.77;100.00;99429.97;5093175;28;20052;-78
2022/11/30 12:52:45;;;;;;;16.27;8.02;;;;;;;6.54;100.00;99413.38;5090704;28;20151;-78
2022/11/30 12:55:26;;;;;;;15.90;8.38;;;;;;;6.63;100.00;99435.91;5091790;28;20071;-78
2022/11/30 12:58:01;;;;;;;13.60;8.00;;;;;;;6.50;100.00;99428.16;5092890;28;20040;-78
2022/11/30 13:00:36;;;;;;;14.80;7.57;;;;;;;6.59;100.00;99434.50;5091584;28;20681;-78
2022/11/30 13:03:33;;;;;;;15.38;7.85;;;;;;;6.61;100.00;99430.66;5090417;28;20052;-78
2022/11/30 13:06:05;;;;;;;13.98;7.65;;;;;;;6.55;100.00;99433.97;5084065;28;20044;-78
2022/11/30 13:08:38;;;;;;;12.90;7.90;;;;;;;6.47;100.00;99414.97;5092926;28;20310;-79
2022/11/30 13:11:11;;;;;;;12.13;7.18;;;;;;;6.64;100.00;99433.06;5092633;28;20044;-79
2022/11/30 13:13:46;;;;;;;16.13;8.02;;;;;;;6.66;100.00;99433.75;5092215;28;20550;-78
2022/11/30 13:16:13;;;;;;;12.88;7.97;;;;;;;6.58;100.00;99419.31;5088052;28;20055;-79
2022/11/30 13:18:42;;;;;;;14.13;8.05;;;;;;;6.62;100.00;99431.50;5092605;28;20287;-78
2022/11/30 13:21:17;;;;;;;16.33;8.05;;;;;;;6.40;100.00;99413.88;5088743;28;20490;-78
2022/11/30 13:23:51;;;;;;;14.15;7.55;;;;;;;6.47;100.00;99417.66;5091740;28;20052;-78
2022/11/30 13:26:25;;;;;;;14.68;8.27;;;;;;;6.36;100.00;99418.75;5092255;28;20044;-78
2022/11/30 13:29:06;;;;;;;14.73;7.68;;;;;;;6.40;100.00;99419.28;5088539;28;20541;-79
2022/11/30 13:31:39;;;;;;;15.75;8.80;;;;;;;6.51;100.00;99429.88;5092416;28;20056;-78
2022/11/30 13:34:23;;;;;;;12.65;8.35;;;;;;;6.53;100.00;99426.03;5089528;28;20055;-78
2022/11/30 13:36:51;;;;;;;14.32;7.53;;;;;;;6.55;100.00;99424.03;5085392;28;20126;-78
2022/11/30 13:39:24;;;;;;;14.70;8.18;;;;;;;6.53;100.00;99430.56;5091795;28;20517;-78
2022/11/30 13:42:11;;;;;;;14.65;8.20;;;;;;;6.53;100.00;99439.53;5092529;28;20400;-79
2022/11/30 13:44:40;;;;;;;15.70;8.65;;;;;;;6.48;100.00;99430.19;5090768;28;20438;-78
2022/11/30 13:47:17;;;;;;;14.20;8.30;;;;;;;6.45;100.00;99428.63;5090268;28;20058;-78
2022/11/30 13:49:46;;;;;;;14.13;9.07;;;;;;;6.43;100.00;99429.78;5092077;28;20043;-78
2022/11/30 13:52:14;;;;;;;20.17;8.88;;;;;;;6.31;100.00;99416.50;5087413;28;20555;-78
2022/11/30 13:54:43;;;;;;;19.50;9.82;;;;;;;6.36;100.00;99410.63;5091711;28;20078;-78
2022/11/30 13:57:18;;;;;;;20.40;12.13;;;;;;;6.37;100.00;99432.09;5092023;28;20054;-78
2022/11/30 13:59:47;;;;;;;18.85;11.30;;;;;;;6.44;100.00;99431.47;5091946;28;20047;-79
2022/11/30 14:02:53;;;;;;;20.40;11.50;;;;;;;6.49;100.00;99437.28;5089833;28;20449;-78
2022/11/30 14:05:38;;;;;;;22.15;10.75;;;;;;;6.40;100.00;99430.06;5083217;28;20060;-78
2022/11/30 14:08:17;;;;;;;18.88;10.75;;;;;;;6.37;100.00;99433.94;5091367;28;20444;-78
2022/11/30 14:10:46;;;;;;;17.85;10.00;;;;;;;6.16;100.00;99413.47;5090818;28;20144;-78
2022/11/30 14:13:28;;;;;;;21.88;11.07;;;;;;;6.25;100.00;99427.03;5091517;28;20056;-79
2022/11/30 14:15:58;;;;;;;15.73;9.82;;;;;;;6.15;100.00;99408.22;5089658;28;21452;-79
2022/11/30 14:18:48;;;;;;;19.83;10.60;;;;;;;6.27;100.00;99431.28;5086044;28;20057;-78
2022/11/30 14:21:21;;;;;;;18.50;9.43;;;;;;;6.19;100.00;99423.09;5087501;28;20127;-78
2022/11/30 14:23:55;;;;;;;15.30;8.85;;;;;;;6.12;100.00;99412.03;5084361;28;20127;-78
2022/11/30 14:26:25;;;;;;;17.95;9.40;;;;;;;6.29;100.00;99439.25;5082055;28;20102;-79
2022/11/30 14:28:57;;;;;;;15.73;9.05;;;;;;;6.30;100.00;99441.78;5082749;28;20650;-78
2022/11/30 14:31:26;;;;;;;16.70;10.25;;;;;;;6.31;100.00;99443.50;5082951;28;20048;-78
2022/11/30 14:33:55;;;;;;;20.13;10.77;;;;;;;6.19;100.00;99439.31;5084645;28;20052;-78
2022/11/30 14:36:27;;;;;;;25.25;13.50;;;;;;;6.16;100.00;99436.91;5081456;28;20139;-78
2022/11/30 14:38:54;;;;;;;32.00;13.70;;;;;;;6.12;100.00;99443.59;5087781;28;20055;-78
2022/11/30 14:41:22;;;;;;;29.25;14.63;;;;;;;6.03;100.00;99439.94;5086363;28;20043;-78
2022/11/30 14:44:04;;;;;;;27.42;14.57;;;;;;;6.04;100.00;99428.16;5088812;28;20419;-78
2022/11/30 14:46:33;;;;;;;30.92;15.57;;;;;;;6.07;100.00;99432.38;5081689;28;20511;-78
2022/11/30 14:49:12;;;;;;;34.92;16.08;;;;;;;5.95;100.00;99432.56;5087291;28;20056;-78
2022/11/30 14:51:42;;;;;;;39.00;18.00;;;;;;;6.07;100.00;99437.78;5083503;28;20089;-78
2022/11/30 14:54:20;;;;;;;33.78;16.88;;;;;;;6.21;100.00;99448.09;5085953;28;20430;-78
2022/11/30 14:56:48;;;;;;;37.97;17.00;;;;;;;6.12;100.00;99443.59;5076719;28;20060;-78
2022/11/30 14:59:32;;;;;;;32.28;16.15;;;;;;;6.06;100.00;99447.75;5080595;28;20044;-78
2022/11/30 15:02:02;;;;;;;34.65;15.93;;;;;;;6.01;100.00;99452.75;5072557;28;20040;-78
2022/11/30 15:04:30;;;;;;;38.13;17.00;;;;;;;5.99;100.00;99450.19;5090155;28;20048;-78
2022/11/30 15:06:59;;;;;;;37.13;19.05;;;;;;;5.86;100.00;99425.34;5077119;28;20052;-78
2022/11/30 15:09:30;;;;;;;32.10;15.98;;;;;;;5.85;100.00;99429.03;5084579;28;20480;-78
2022/11/30 15:11:58;;;;;;;39.20;17.05;;;;;;;6.00;100.00;99443.78;5073957;28;20403;-78
2022/11/30 15:14:24;;;;;;;48.63;22.83;;;;;;;5.88;100.00;99430.59;5074993;28;20075;-78
2022/11/30 15:16:52;;;;;;;38.70;18.55;;;;;;;5.96;100.00;99442.38;5084460;28;20051;-78
2022/11/30 15:19:22;;;;;;;38.50;17.75;;;;;;;5.90;100.00;99442.97;5074642;28;20048;-78
2022/11/30 15:21:50;;;;;;;31.45;16.75;;;;;;;5.68;100.00;99422.59;5084166;28;20050;-78
2022/11/30 15:24:18;;;;;;;35.50;17.70;;;;;;;5.72;100.00;99442.88;5078754;28;20552;-78
2022/11/30 15:26:54;;;;;;;37.20;17.83;;;;;;;5.66;100.00;99433.53;5087354;28;20509;-78
2022/11/30 15:29:26;;;;;;;38.15;18.23;;;;;;;5.76;100.00;99443.44;5075354;28;20154;-78
2022/11/30 15:31:55;;;;;;;35.83;18.40;;;;;;;5.72;100.00;99436.63;5081190;28;20094;-79
2022/11/30 15:34:29;;;;;;;34.78;18.85;;;;;;;5.79;100.00;99452.06;5080787;28;20051;-79
2022/11/30 15:36:58;;;;;;;39.97;19.27;;;;;;;5.72;100.00;99437.50;5082870;28;20055;-79
2022/11/30 15:39:28;;;;;;;36.95;16.88;;;;;;;5.75;100.00;99452.50;5081550;28;20101;-79
2022/11/30 15:41:55;;;;;;;;;;;;;;;5.71;100.00;99451.97;5082221;28;20094;-79
2022/11/30 15:44:25;;;;;;;41.60;19.45;;;;;;;5.67;100.00;99451.41;5078081;28;19920;-79
2022/11/30 15:46:59;;;;;;;47.53;20.92;;;;;;;5.61;100.00;99457.38;5087100;28;20506;-79
2022/11/30 15:49:27;;;;;;;44.17;19.95;;;;;;;5.53;100.00;99432.16;5083026;28;20098;-78
2022/11/30 15:52:03;;;;;;;35.67;17.35;;;;;;;5.59;100.00;99439.66;5082081;28;20491;-77
2022/11/30 15:54:48;;;;;;;45.42;18.45;;;;;;;5.68;100.00;99471.97;5088180;28;20076;-78
2022/11/30 15:57:16;;;;;;;41.85;21.23;;;;;;;5.71;100.00;99468.16;5089592;28;20127;-78
2022/11/30 15:59:43;;;;;;;38.65;19.70;;;;;;;5.71;100.00;99475.41;5089809;28;20062;-78
2022/11/30 16:02:28;;;;;;;36.55;17.20;;;;;;;5.68;100.00;99474.69;5092521;28;20046;-78
2022/11/30 16:05:22;;;;;;;31.90;15.95;;;;;;;5.62;100.00;99467.16;5092080;28;20107;-78
2022/11/30 16:07:50;;;;;;;31.20;15.32;;;;;;;5.60;100.00;99466.47;5093431;28;20491;-78
2022/11/30 16:10:20;;;;;;;30.42;14.15;;;;;;;5.63;100.00;99476.97;5089041;28;20070;-78
2022/11/30 16:12:49;;;;;;;27.77;13.85;;;;;;;5.54;100.00;99480.56;5085430;28;20052;-79
2022/11/30 16:15:18;;;;;;;31.55;15.65;;;;;;;5.60;100.00;99474.56;5083926;28;20109;-78
2022/11/30 16:17:45;;;;;;;24.85;11.35;;;;;;;5.64;100.00;99491.31;5089016;28;20055;-77
2022/11/30 16:20:13;;;;;;;22.88;10.60;;;;;;;5.66;100.00;99486.59;5092389;28;20398;-78
2022/11/30 16:22:41;;;;;;;25.40;12.32;;;;;;;5.55;100.00;99470.59;5092493;28;20109;-78
2022/11/30 16:25:13;;;;;;;23.08;10.20;;;;;;;5.57;100.00;99482.94;5088821;28;20048;-79
2022/11/30 16:27:42;;;;;;;21.67;10.55;;;;;;;5.50;100.00;99471.03;5088857;28;20063;-79
2022/11/30 16:30:13;;;;;;;26.80;10.40;;;;;;;5.59;100.00;99493.59;5091959;28;20411;-79
2022/11/30 16:32:39;;;;;;;21.85;10.38;;;;;;;5.55;100.00;99462.50;5087968;28;20051;-79
2022/11/30 16:35:18;;;;;;;21.98;11.27;;;;;;;5.52;100.00;99481.69;5092037;28;20043;-79
2022/11/30 16:37:44;;;;;;;21.65;10.73;;;;;;;5.51;100.00;99470.06;5084377;28;20040;-79
2022/11/30 16:40:13;;;;;;;35.70;15.18;;;;;;;5.61;100.00;99476.25;5089110;28;20052;-79
2022/11/30 16:42:41;;;;;;;16.48;9.48;;;;;;;5.70;100.00;99495.28;5092115;28;20055;-79
2022/11/30 16:45:14;;;;;;;18.35;9.25;;;;;;;5.63;100.00;99494.97;5091453;28;20503;-78
2022/11/30 16:47:41;;;;;;;16.20;8.77;;;;;;;5.63;100.00;99501.25;5092699;28;20052;-78
2022/11/30 16:50:09;;;;;;;14.80;8.10;;;;;;;5.52;100.00;99482.50;5096188;28;20083;-78
2022/11/30 16:52:36;;;;;;;13.38;7.68;;;;;;;5.51;100.00;99486.22;5088649;28;20493;-78
2022/11/30 16:55:02;;;;;;;13.77;7.03;;;;;;;5.42;100.00;99474.47;5085550;28;20502;-79
2022/11/30 16:57:29;;;;;;;12.98;7.28;;;;;;;5.48;100.00;99486.53;5092156;28;20457;-78
2022/11/30 16:59:57;;;;;;;13.63;6.97;;;;;;;5.42;100.00;99478.97;5092642;28;20051;-78
2022/11/30 17:02:23;;;;;;;26.23;12.18;;;;;;;5.52;100.00;99506.78;5084461;28;20087;-78
2022/11/30 17:04:50;;;;;;;25.35;12.18;;;;;;;5.53;100.00;99510.34;5090689;28;20063;-78
2022/11/30 17:07:16;;;;;;;13.57;6.72;;;;;;;5.47;100.00;99509.91;5090986;28;20052;-78
2022/11/30 17:09:43;;;;;;;12.82;7.25;;;;;;;5.38;100.00;99500.00;5092667;28;20048;-78
2022/11/30 17:12:10;;;;;;;13.95;7.45;;;;;;;5.38;100.00;99507.25;5085651;28;20063;-78
2022/11/30 17:14:36;;;;;;;12.43;6.65;;;;;;;5.30;100.00;99495.31;5091296;28;20062;-78
2022/11/30 17:17:04;;;;;;;12.90;7.18;;;;;;;5.26;100.00;99487.66;5091381;28;20051;-78
2022/11/30 17:19:31;;;;;;;13.27;7.15;;;;;;;5.32;100.00;99503.28;5091749;28;20055;-78
2022/11/30 17:21:57;;;;;;;12.00;6.97;;;;;;;5.33;100.00;99510.38;5082458;28;20048;-78
2022/11/30 17:24:24;;;;;;;18.45;7.95;;;;;;;5.31;100.00;99518.59;5083245;28;20416;-78
2022/11/30 17:26:50;;;;;;;14.40;7.47;;;;;;;5.29;100.00;99514.34;5088873;28;20052;-78
2022/11/30 17:29:17;;;;;;;16.20;8.35;;;;;;;5.18;100.00;99501.88;5083598;28;20450;-78
2022/11/30 17:31:44;;;;;;;17.80;8.93;;;;;;;5.21;100.00;99511.50;5092691;28;20052;-78
2022/11/30 17:34:13;;;;;;;15.10;8.35;;;;;;;5.26;100.00;99518.16;5087907;28;20083;-78
2022/11/30 17:36:39;;;;;;;14.80;7.95;;;;;;;5.16;100.00;99494.91;5088944;28;20079;-78
2022/11/30 17:39:07;;;;;;;15.40;8.75;;;;;;;5.26;100.00;99518.16;5090899;28;20140;-78
2022/11/30 17:41:33;;;;;;;21.95;9.95;;;;;;;5.26;100.00;99528.09;5089171;28;20048;-78
2022/11/30 17:44:01;;;;;;;20.92;9.43;;;;;;;5.32;100.00;99530.22;5092188;28;20068;-78
2022/11/30 17:46:27;;;;;;;16.35;8.63;;;;;;;5.09;100.00;99498.16;5085151;28;20066;-78
2022/11/30 17:48:55;;;;;;;15.35;8.32;;;;;;;5.30;100.00;99532.22;5087174;28;20063;-78
2022/11/30 17:51:23;;;;;;;15.23;8.35;;;;;;;5.12;100.00;99514.06;5088128;28;20505;-78
2022/11/30 17:53:49;;;;;;;15.13;7.85;;;;;;;5.02;100.00;99506.97;5081651;28;20498;-78
2022/11/30 17:56:17;;;;;;;20.27;8.32;;;;;;;5.04;100.00;99529.22;5086257;28;20141;-78
2022/11/30 17:58:46;;;;;;;13.45;7.30;;;;;;;5.12;100.00;99532.91;5089311;28;20079;-78
2022/11/30 18:01:17;;;;;;;17.92;7.80;;;;;;;5.01;100.00;99518.72;5086032;28;20040;-78
2022/11/30 18:03:43;;;;;;;15.32;8.07;;;;;;;5.03;100.00;99532.91;5083541;28;20056;-79
2022/11/30 18:06:10;;;;;;;15.20;8.63;;;;;;;4.89;100.00;99526.94;5088813;28;20473;-78
2022/11/30 18:08:39;;;;;;;14.32;7.50;;;;;;;4.91;100.00;99535.75;5088347;28;20407;-78
2022/11/30 18:11:08;;;;;;;16.15;7.28;;;;;;;4.79;100.00;99512.63;5084858;28;20067;-78
2022/11/30 18:13:35;;;;;;;16.45;7.63;;;;;;;4.74;100.00;99525.63;5088014;28;20055;-78
2022/11/30 18:16:10;;;;;;;16.50;7.63;;;;;;;4.89;100.00;99551.19;5088894;28;20399;-78
2022/11/30 18:18:37;;;;;;;16.52;8.18;;;;;;;4.76;100.00;99537.97;5087896;28;20048;-78
2022/11/30 18:21:05;;;;;;;15.20;7.95;;;;;;;4.84;100.00;99541.81;5081291;28;20135;-77
2022/11/30 18:23:31;;;;;;;15.82;7.43;;;;;;;4.68;100.00;99526.19;5086510;28;20048;-78
2022/11/30 18:26:00;;;;;;;16.55;7.68;;;;;;;4.72;100.00;99543.78;5087108;28;20047;-78
2022/11/30 18:28:26;;;;;;;15.55;6.40;;;;;;;4.60;100.00;99524.19;5089080;28;20139;-77
2022/11/30 18:30:53;;;;;;;13.32;6.38;;;;;;;4.75;100.00;99557.81;5087642;28;20052;-78
2022/11/30 18:33:19;;;;;;;14.23;6.28;;;;;;;4.51;100.00;99536.63;5078492;28;20074;-78
2022/11/30 18:35:46;;;;;;;14.63;6.50;;;;;;;4.67;100.00;99570.28;5086694;28;20048;-78
2022/11/30 18:38:14;;;;;;;13.85;6.60;;;;;;;4.63;100.00;99564.31;5087304;28;20044;-78
2022/11/30 18:40:41;;;;;;;13.35;6.70;;;;;;;4.67;100.00;99562.22;5087856;28;20051;-78
2022/11/30 18:43:09;;;;;;;12.82;5.63;;;;;;;4.67;100.00;99559.50;5086625;28;20452;-78
2022/11/30 18:45:37;;;;;;;12.02;6.03;;;;;;;4.63;100.00;99564.31;5086618;28;20048;-78
2022/11/30 18:48:05;;;;;;;17.90;6.25;;;;;;;4.52;100.00;99565.25;5086555;28;20047;-78
2022/11/30 18:50:32;;;;;;;14.60;6.15;;;;;;;4.54;100.00;99586.66;5087274;28;20074;-78
2022/11/30 18:52:58;;;;;;;16.00;6.53;;;;;;;4.44;100.00;99575.84;5081413;28;20083;-78
2022/11/30 18:55:25;;;;;;;18.38;7.72;;;;;;;4.25;100.00;99558.63;5086631;28;20470;-78
2022/11/30 18:57:52;;;;;;;23.27;8.70;;;;;;;4.22;100.00;99563.44;5087950;28;20129;-77
2022/11/30 19:00:21;;;;;;;20.33;8.00;;;;;;;4.29;100.00;99567.31;5086326;28;20044;-78
2022/11/30 19:02:49;;;;;;;21.70;8.37;;;;;;;4.30;100.00;99569.00;5082656;28;20040;-78
2022/11/30 19:05:30;;;;;;;22.90;8.63;;;;;;;4.41;100.00;99586.88;5085771;28;20043;-78
2022/11/30 19:07:57;;;;;;;21.35;8.40;;;;;;;4.40;100.00;99591.44;5083781;28;20453;-78
2022/11/30 19:10:23;;;;;;;20.85;7.82;;;;;;;4.36;100.00;99581.91;5083746;28;20483;-78
2022/11/30 19:12:50;;;;;;;13.95;7.35;;;;;;;4.25;100.00;99560.47;5083980;28;20353;-78
2022/11/30 19:15:17;;;;;;;16.77;7.85;;;;;;;4.39;100.00;99602.34;5087429;28;20052;-78
2022/11/30 19:17:45;;;;;;;14.48;7.28;;;;;;;4.18;100.00;99554.75;5086869;28;20044;-78
2022/11/30 19:20:12;;;;;;;14.38;6.82;;;;;;;4.29;100.00;99583.47;5078702;28;20568;-78